ADDS METAR Data INFO
IDs: Format: Raw Decoded Include TAF

Data at: 0247 UTC 21 Jan 2018

KFME 210236Z AUTO 00000KT 10SM CLR 00/M02 A3011 RMK AO1
KFME 210215Z AUTO 00000KT 10SM CLR 00/M02 A3010 RMK AO1
KFME 210157Z AUTO 00000KT 10SM CLR 00/M01 A3010 RMK AO1
KFME 210136Z AUTO 00000KT 10SM CLR 01/M01 A3009 RMK AO1
KFME 210115Z AUTO 00000KT 10SM CLR 02/M01 A3009 RMK AO1
KFME 210057Z AUTO 00000KT 10SM CLR 01/M01 A3008 RMK AO1
KFME 210036Z AUTO 00000KT 10SM CLR 02/M01 A3007 RMK AO1
KFME 210015Z AUTO 00000KT 10SM CLR 02/M01 A3007 RMK AO1
KFME 202357Z AUTO 00000KT 10SM CLR 03/M01 A3006 RMK AO1
KFME 202336Z AUTO 00000KT 10SM CLR 03/M01 A3005 RMK AO1
KFME 202315Z AUTO 00000KT 10SM CLR 05/M01 A3004 RMK AO1
KFME 202257Z AUTO 00000KT 10SM CLR 04/M01 A3003 RMK AO1
KFME 202236Z AUTO 00000KT 10SM CLR 06/00 A3002 RMK AO1
KFME 202215Z AUTO 23004KT 10SM CLR 08/00 A3002 RMK AO1
KFME 202157Z AUTO 23004KT 10SM CLR 09/00 A3001 RMK AO1
KFME 202136Z AUTO 23003KT 10SM CLR 11/00 A3001 RMK AO1
KFME 202115Z AUTO 23004KT 10SM CLR 12/00 A3000 RMK AO1
KFME 202057Z AUTO 23006KT 10SM CLR 13/M01 A2999 RMK AO1
KFME 202036Z AUTO 24006KT 10SM CLR 15/M01 A2999 RMK AO1
KFME 202015Z AUTO 23007KT 10SM CLR 15/M01 A2998 RMK AO1
KFME 201957Z AUTO 24008KT 200V260 10SM CLR 15/00 A2998 RMK AO1
KFME 201936Z AUTO 23005KT 10SM CLR 15/M01 A2998 RMK AO1
KFME 201915Z AUTO 26008KT 210V270 10SM CLR 15/00 A2998 RMK AO1
KFME 201857Z AUTO 23008KT 10SM CLR 15/M01 A2998 RMK AO1
KFME 201836Z AUTO 27008G16KT 10SM CLR 14/M01 A2998 RMK AO1
KFME 201815Z AUTO 26010G14KT 10SM CLR 13/M01 A2998 RMK AO1
KFME 201757Z AUTO 27012G18KT 10SM CLR 13/M01 A2999 RMK AO1
KFME 201736Z AUTO 24010KT 10SM CLR 13/M02 A2999 RMK AO1
KFME 201715Z AUTO 24010KT 10SM CLR 12/M03 A3000 RMK AO1
KFME 201657Z AUTO 23010KT 10SM CLR 12/M03 A3001 RMK AO1
KFME 201636Z AUTO 24009KT 10SM CLR 11/M05 A3002 RMK AO1
KFME 201615Z AUTO 24006KT 10SM CLR 10/M05 A3003 RMK AO1
KFME 201557Z AUTO 22006KT 10SM CLR 10/M06 A3004 RMK AO1
KFME 201536Z AUTO 22005KT 10SM CLR 08/M06 A3004 RMK AO1
KFME 201515Z AUTO 23004KT 10SM CLR 06/M03 A3004 RMK AO1
KFME 201457Z AUTO 00000KT 10SM CLR 04/M05 A3005 RMK AO1
KFME 201436Z AUTO 00000KT 10SM CLR 01/M03 A3005 RMK AO1
KFME 201415Z AUTO 20003KT 10SM CLR M01/M03 A3005 RMK AO1
KFME 201357Z AUTO 00000KT 10SM CLR M02/M05 A3005 RMK AO1
KFME 201336Z AUTO 00000KT 10SM CLR M04/M06 A3005 RMK AO1
KFME 201315Z AUTO 00000KT 10SM CLR M05/M06 A3004 RMK AO1
KFME 201257Z AUTO 00000KT 10SM CLR M06/M07 A3003 RMK AO1
KFME 201236Z AUTO 00000KT 10SM CLR M06/M07 A3003 RMK AO1
KFME 201215Z AUTO 00000KT 10SM CLR M06/M07 A3002 RMK AO1
KFME 201157Z AUTO 00000KT 10SM CLR M06/M07 A3002 RMK AO1
KFME 201136Z AUTO 00000KT 10SM CLR M06/M06 A3002 RMK AO1
KFME 201115Z AUTO 00000KT 10SM CLR M06/M07 A3002 RMK AO1
KFME 201057Z AUTO 00000KT 10SM CLR M06/M07 A3002 RMK AO1
KFME 201036Z AUTO 00000KT 10SM CLR M06/M07 A3001 RMK AO1
KFME 201015Z AUTO 00000KT 10SM CLR M06/M07 A3001 RMK AO1
KFME 200957Z AUTO 00000KT 10SM CLR M06/M07 A3001 RMK AO1
KFME 200936Z AUTO 00000KT 10SM CLR M06/M07 A3001 RMK AO1
KFME 200915Z AUTO 00000KT 10SM CLR M05/M07 A3001 RMK AO1
KFME 200857Z AUTO 00000KT 10SM CLR M05/M07 A3000 RMK AO1
KFME 200836Z AUTO 00000KT 10SM CLR M05/M07 A3001 RMK AO1
KFME 200815Z AUTO 00000KT 10SM CLR M05/M06 A3001 RMK AO1
KFME 200757Z AUTO 00000KT 10SM CLR M05/M07 A3002 RMK AO1
KFME 200736Z AUTO 00000KT 10SM CLR M05/M07 A3002 RMK AO1
KFME 200715Z AUTO 00000KT 10SM CLR M05/M07 A3002 RMK AO1
KFME 200657Z AUTO 00000KT 10SM CLR M05/M07 A3002 RMK AO1
KFME 200636Z AUTO 00000KT 10SM CLR M05/M06 A3002 RMK AO1
KFME 200615Z AUTO 00000KT 10SM CLR M05/M07 A3003 RMK AO1
KFME 200557Z AUTO 00000KT 10SM CLR M05/M06 A3003 RMK AO1
KFME 200536Z AUTO 00000KT 10SM CLR M05/M06 A3004 RMK AO1
KFME 200515Z AUTO 00000KT 10SM CLR M05/M06 A3005 RMK AO1
KFME 200457Z AUTO 00000KT 10SM CLR M04/M06 A3005 RMK AO1
KFME 200436Z AUTO 00000KT 10SM CLR M04/M06 A3005 RMK AO1
KFME 200415Z AUTO 00000KT 10SM CLR M04/M06 A3006 RMK AO1
KFME 200357Z AUTO 00000KT 10SM CLR M03/M06 A3006 RMK AO1
KFME 200336Z AUTO 00000KT 10SM CLR M03/M06 A3006 RMK AO1
KFME 200315Z AUTO 00000KT 10SM CLR M03/M06 A3006 RMK AO1
KFME 200257Z AUTO 00000KT 10SM CLR M03/M07 A3007 RMK AO1
KFME 200236Z AUTO 00000KT 10SM CLR M03/M06 A3006 RMK AO1
KFME 200215Z AUTO 00000KT 10SM CLR M03/M06 A3006 RMK AO1
KFME 200157Z AUTO 00000KT 10SM CLR M02/M06 A3007 RMK AO1
KFME 200136Z AUTO 00000KT 10SM CLR M02/M07 A3007 RMK AO1
KFME 200115Z AUTO 00000KT 10SM CLR M02/M06 A3007 RMK AO1
KFME 200057Z AUTO 00000KT 10SM CLR M02/M07 A3007 RMK AO1
KFME 200036Z AUTO 00000KT 10SM CLR M01/M07 A3006 RMK AO1
KFME 200015Z AUTO 00000KT 10SM CLR M01/M06 A3006 RMK AO1
KFME 192357Z AUTO 00000KT 10SM CLR M01/M06 A3007 RMK AO1
KFME 192336Z AUTO 00000KT 10SM CLR 00/M06 A3006 RMK AO1
KFME 192315Z AUTO 00000KT 10SM CLR 01/M06 A3006 RMK AO1
KFME 192257Z AUTO 16003KT 10SM CLR 02/M07 A3006 RMK AO1
KFME 192236Z AUTO 14004KT 10SM CLR 03/M09 A3006 RMK AO1
KFME 192215Z AUTO 20003KT 10SM CLR 03/M06 A3006 RMK AO1
KFME 192157Z AUTO 20004KT 10SM CLR 06/M08 A3005 RMK AO1
KFME 192136Z AUTO 20004KT 10SM CLR 08/M09 A3006 RMK AO1
KFME 192115Z AUTO 18003KT 10SM CLR 09/M08 A3006 RMK AO1
KFME 192057Z AUTO 19004KT 10SM CLR 10/M09 A3006 RMK AO1
KFME 192036Z AUTO 00000KT 10SM CLR 10/M10 A3006 RMK AO1
KFME 192015Z AUTO 26006KT 10SM CLR 10/M10 A3006 RMK AO1
KFME 191957Z AUTO 26008KT 10SM CLR 10/M10 A3006 RMK AO1
KFME 191936Z AUTO 24004KT 10SM CLR 10/M10 A3006 RMK AO1
KFME 191915Z AUTO 28006KT 10SM CLR 10/M09 A3006 RMK AO1
KFME 191857Z AUTO 24009G14KT 10SM CLR 10/M09 A3007 RMK AO1
KFME 191836Z AUTO 30010KT 10SM CLR 10/M08 A3007 RMK AO1
KFME 191815Z AUTO 23006KT 10SM CLR 09/M08 A3008 RMK AO1
KFME 191757Z AUTO 27011G15KT 10SM CLR 09/M08 A3008 RMK AO1
KFME 191736Z AUTO 26011KT 10SM CLR 09/M08 A3010 RMK AO1
KFME 191715Z AUTO 26009G15KT 10SM CLR 08/M08 A3011 RMK AO1
KFME 191657Z AUTO 26006G14KT 10SM CLR 08/M08 A3012 RMK AO1
KFME 191636Z AUTO 27010G18KT 10SM CLR 07/M08 A3013 RMK AO1
KFME 191615Z AUTO 26008KT 10SM CLR 06/M09 A3015 RMK AO1
KFME 191557Z AUTO 29009KT 10SM CLR 06/M08 A3016 RMK AO1
KFME 191536Z AUTO 26012G16KT 10SM CLR 05/M08 A3016 RMK AO1
KFME 191515Z AUTO 27006G15KT 10SM CLR 05/M09 A3017 RMK AO1
KFME 191457Z AUTO 28005KT 10SM CLR 03/M08 A3016 RMK AO1